sensor_id;sensor_type;location;lat;lon;timestamp;pressure;altitude;pressure_sealevel;temperature;humidity
77149;BME280;66122;47.130;16.844;2023-03-23T00:00:35;99428.47;;;11.90;57.12
77149;BME280;66122;47.130;16.844;2023-03-23T00:10:37;99423.56;;;11.84;58.29
77149;BME280;66122;47.130;16.844;2023-03-23T00:20:38;99422.44;;;11.73;58.68
77149;BME280;66122;47.130;16.844;2023-03-23T00:30:41;99412.69;;;11.46;58.94
77149;BME280;66122;47.130;16.844;2023-03-23T00:40:43;99413.38;;;10.92;61.33
77149;BME280;66122;47.130;16.844;2023-03-23T00:50:45;99422.88;;;10.23;65.59
77149;BME280;66122;47.130;16.844;2023-03-23T01:00:46;99386.94;;;9.24;67.99
77149;BME280;66122;47.130;16.844;2023-03-23T01:10:49;99394.94;;;9.07;69.85
77149;BME280;66122;47.130;16.844;2023-03-23T01:20:51;99377.50;;;9.20;68.89
77149;BME280;66122;47.130;16.844;2023-03-23T01:30:52;99385.75;;;9.46;68.14
77149;BME280;66122;47.130;16.844;2023-03-23T01:40:54;99369.66;;;9.50;67.09
77149;BME280;66122;47.130;16.844;2023-03-23T01:50:59;99373.72;;;9.24;68.59
77149;BME280;66122;47.130;16.844;2023-03-23T02:01:08;99377.47;;;9.05;69.11
77149;BME280;66122;47.130;16.844;2023-03-23T02:11:18;99380.25;;;8.69;71.18
77149;BME280;66122;47.130;16.844;2023-03-23T02:42:15;99385.16;;;8.24;74.78
77149;BME280;66122;47.130;16.844;2023-03-23T02:52:21;99390.41;;;7.54;75.32
77149;BME280;66122;47.130;16.844;2023-03-23T03:02:32;99380.13;;;7.29;76.03
77149;BME280;66122;47.130;16.844;2023-03-23T03:13:09;99392.91;;;7.20;75.74
77149;BME280;66122;47.130;16.844;2023-03-23T03:23:14;99400.94;;;6.98;76.19
77149;BME280;66122;47.130;16.844;2023-03-23T03:33:18;99422.56;;;6.65;77.23
77149;BME280;66122;47.130;16.844;2023-03-23T03:43:23;99403.34;;;6.43;78.66
77149;BME280;66122;47.130;16.844;2023-03-23T03:53:24;99426.25;;;5.99;82.58
77149;BME280;66122;47.130;16.844;2023-03-23T04:03:27;99424.34;;;6.03;82.02
77149;BME280;66122;47.130;16.844;2023-03-23T04:13:39;99425.75;;;6.11;81.29
77149;BME280;66122;47.130;16.844;2023-03-23T04:23:59;99434.59;;;5.88;84.40
77149;BME280;66122;47.130;16.844;2023-03-23T04:34:02;99439.97;;;5.84;85.22
77149;BME280;66122;47.130;16.844;2023-03-23T04:44:10;99440.16;;;5.79;85.24
77149;BME280;66122;47.130;16.844;2023-03-23T04:54:19;99430.13;;;5.91;85.16
77149;BME280;66122;47.130;16.844;2023-03-23T05:04:25;99427.41;;;5.92;88.22
77149;BME280;66122;47.130;16.844;2023-03-23T05:14:42;99422.88;;;6.38;87.04
77149;BME280;66122;47.130;16.844;2023-03-23T05:24:47;99423.56;;;7.21;83.59
77149;BME280;66122;47.130;16.844;2023-03-23T05:34:48;99424.34;;;7.98;79.93
77149;BME280;66122;47.130;16.844;2023-03-23T05:44:50;99405.13;;;8.65;76.33
77149;BME280;66122;47.130;16.844;2023-03-23T05:54:53;99418.53;;;9.74;71.81
77149;BME280;66122;47.130;16.844;2023-03-23T06:04:56;99400.50;;;10.72;66.93
77149;BME280;66122;47.130;16.844;2023-03-23T06:15:06;99424.19;;;11.18;64.99
77149;BME280;66122;47.130;16.844;2023-03-23T06:25:26;99433.63;;;11.64;62.74
77149;BME280;66122;47.130;16.844;2023-03-23T06:35:29;99435.25;;;11.81;60.23
77149;BME280;66122;47.130;16.844;2023-03-23T06:45:50;99458.16;;;11.82;61.32
77149;BME280;66122;47.130;16.844;2023-03-23T06:56:16;99465.44;;;12.34;58.46
77149;BME280;66122;47.130;16.844;2023-03-23T07:06:18;99473.63;;;12.83;57.11
77149;BME280;66122;47.130;16.844;2023-03-23T07:16:25;99456.88;;;13.20;55.73
77149;BME280;66122;47.130;16.844;2023-03-23T07:26:28;99477.31;;;14.31;54.27
77149;BME280;66122;47.130;16.844;2023-03-23T07:36:31;99481.16;;;15.09;50.89
77149;BME280;66122;47.130;16.844;2023-03-23T07:46:33;99478.94;;;14.92;50.60
77149;BME280;66122;47.130;16.844;2023-03-23T07:56:58;99473.09;;;15.33;49.86
77149;BME280;66122;47.130;16.844;2023-03-23T08:07:03;99481.72;;;15.48;50.77
77149;BME280;66122;47.130;16.844;2023-03-23T08:17:15;99467.97;;;15.30;51.29
77149;BME280;66122;47.130;16.844;2023-03-23T08:27:35;99473.59;;;15.94;49.64
77149;BME280;66122;47.130;16.844;2023-03-23T08:38:03;99456.69;;;16.48;49.33
77149;BME280;66122;47.130;16.844;2023-03-23T08:48:28;99460.63;;;17.17;48.44
77149;BME280;66122;47.130;16.844;2023-03-23T08:58:49;99458.38;;;17.43;48.21
77149;BME280;66122;47.130;16.844;2023-03-23T09:09:16;99451.38;;;18.60;45.35
77149;BME280;66122;47.130;16.844;2023-03-23T09:19:18;99452.59;;;17.47;47.01
77149;BME280;66122;47.130;16.844;2023-03-23T09:29:20;99419.72;;;18.54;44.69
77149;BME280;66122;47.130;16.844;2023-03-23T09:39:22;99446.44;;;18.75;44.52
77149;BME280;66122;47.130;16.844;2023-03-23T09:49:30;99434.53;;;19.16;44.00
77149;BME280;66122;47.130;16.844;2023-03-23T09:59:41;99445.88;;;20.11;42.32
77149;BME280;66122;47.130;16.844;2023-03-23T10:09:48;99444.34;;;20.09;41.78
77149;BME280;66122;47.130;16.844;2023-03-23T10:40:24;99420.94;;;20.54;41.39
77149;BME280;66122;47.130;16.844;2023-03-23T10:50:34;99405.75;;;20.18;42.71
77149;BME280;66122;47.130;16.844;2023-03-23T11:00:46;99394.25;;;21.04;39.45
77149;BME280;66122;47.130;16.844;2023-03-23T11:10:54;99401.09;;;20.73;38.98
77149;BME280;66122;47.130;16.844;2023-03-23T11:20:58;99381.44;;;21.58;37.73
77149;BME280;66122;47.130;16.844;2023-03-23T11:31:01;99362.78;;;22.64;36.38
77149;BME280;66122;47.130;16.844;2023-03-23T11:41:09;99364.31;;;21.83;38.02
77149;BME280;66122;47.130;16.844;2023-03-23T11:51:17;99341.97;;;21.99;37.23
77149;BME280;66122;47.130;16.844;2023-03-23T12:22:33;99346.94;;;22.52;36.09
77149;BME280;66122;47.130;16.844;2023-03-23T12:43:15;99331.06;;;22.90;35.13
77149;BME280;66122;47.130;16.844;2023-03-23T12:53:25;99309.09;;;23.48;34.76
77149;BME280;66122;47.130;16.844;2023-03-23T13:24:12;99282.03;;;23.01;35.99
77149;BME280;66122;47.130;16.844;2023-03-23T13:34:25;99261.06;;;24.04;32.35
77149;BME280;66122;47.130;16.844;2023-03-23T13:54:50;99260.47;;;23.32;33.99
77149;BME280;66122;47.130;16.844;2023-03-23T14:04:52;99247.13;;;22.67;35.46
77149;BME280;66122;47.130;16.844;2023-03-23T14:14:59;99238.19;;;23.22;33.44
77149;BME280;66122;47.130;16.844;2023-03-23T14:25:18;99236.66;;;22.64;35.49
77149;BME280;66122;47.130;16.844;2023-03-23T14:35:31;99250.09;;;23.35;32.77
77149;BME280;66122;47.130;16.844;2023-03-23T14:45:33;99252.81;;;22.96;34.73
77149;BME280;66122;47.130;16.844;2023-03-23T14:55:35;99257.28;;;23.90;31.84
77149;BME280;66122;47.130;16.844;2023-03-23T15:05:42;99255.50;;;23.05;34.20
77149;BME280;66122;47.130;16.844;2023-03-23T15:15:45;99238.78;;;21.47;37.81
77149;BME280;66122;47.130;16.844;2023-03-23T15:25:54;99257.09;;;20.59;39.53
77149;BME280;66122;47.130;16.844;2023-03-23T15:35:57;99258.09;;;20.58;39.42
77149;BME280;66122;47.130;16.844;2023-03-23T15:46:26;99246.31;;;19.98;40.34
77149;BME280;66122;47.130;16.844;2023-03-23T15:56:28;99249.31;;;19.77;41.04
77149;BME280;66122;47.130;16.844;2023-03-23T16:06:32;99223.84;;;19.36;42.90
77149;BME280;66122;47.130;16.844;2023-03-23T16:16:43;99245.53;;;19.25;42.75
77149;BME280;66122;47.130;16.844;2023-03-23T16:26:49;99252.13;;;18.86;44.04
77149;BME280;66122;47.130;16.844;2023-03-23T16:36:51;99273.78;;;18.55;45.26
77149;BME280;66122;47.130;16.844;2023-03-23T16:46:54;99244.38;;;18.07;45.18
77149;BME280;66122;47.130;16.844;2023-03-23T16:56:57;99284.44;;;17.89;46.29
77149;BME280;66122;47.130;16.844;2023-03-23T17:07:00;99279.69;;;17.34;47.43
77149;BME280;66122;47.130;16.844;2023-03-23T17:17:02;99297.78;;;16.71;51.84
77149;BME280;66122;47.130;16.844;2023-03-23T17:27:05;99274.00;;;16.15;52.15
77149;BME280;66122;47.130;16.844;2023-03-23T17:37:08;99262.19;;;15.65;53.89
77149;BME280;66122;47.130;16.844;2023-03-23T17:47:11;99326.72;;;14.94;59.67
77149;BME280;66122;47.130;16.844;2023-03-23T17:57:15;99297.50;;;14.35;60.45
77149;BME280;66122;47.130;16.844;2023-03-23T18:07:18;99317.56;;;14.40;61.70
77149;BME280;66122;47.130;16.844;2023-03-23T18:17:25;99303.31;;;14.29;60.62
77149;BME280;66122;47.130;16.844;2023-03-23T18:27:28;99304.78;;;14.33;60.26
77149;BME280;66122;47.130;16.844;2023-03-23T18:37:32;99337.16;;;14.04;60.73
77149;BME280;66122;47.130;16.844;2023-03-23T18:47:36;99284.63;;;13.35;61.29
77149;BME280;66122;47.130;16.844;2023-03-23T18:57:40;99293.03;;;12.55;66.73
77149;BME280;66122;47.130;16.844;2023-03-23T19:07:43;99318.34;;;12.73;66.15
77149;BME280;66122;47.130;16.844;2023-03-23T19:17:46;99293.03;;;12.42;67.66
77149;BME280;66122;47.130;16.844;2023-03-23T19:27:49;99290.66;;;12.12;67.95
77149;BME280;66122;47.130;16.844;2023-03-23T19:38:12;99328.88;;;11.97;68.30
77149;BME280;66122;47.130;16.844;2023-03-23T19:48:16;99353.19;;;11.91;68.29
77149;BME280;66122;47.130;16.844;2023-03-23T19:58:19;99278.53;;;11.15;71.95
77149;BME280;66122;47.130;16.844;2023-03-23T20:08:23;99321.00;;;10.86;75.70
77149;BME280;66122;47.130;16.844;2023-03-23T20:18:27;99303.16;;;10.88;73.66
77149;BME280;66122;47.130;16.844;2023-03-23T20:28:31;99310.00;;;10.78;73.03
77149;BME280;66122;47.130;16.844;2023-03-23T20:38:36;99331.00;;;10.81;73.41
77149;BME280;66122;47.130;16.844;2023-03-23T20:48:40;99340.53;;;10.41;77.02
77149;BME280;66122;47.130;16.844;2023-03-23T20:58:45;99321.19;;;9.95;76.48
77149;BME280;66122;47.130;16.844;2023-03-23T21:08:49;99359.41;;;10.05;76.56
77149;BME280;66122;47.130;16.844;2023-03-23T21:18:54;99357.50;;;9.93;79.65
77149;BME280;66122;47.130;16.844;2023-03-23T21:28:57;99340.03;;;9.59;79.19
77149;BME280;66122;47.130;16.844;2023-03-23T21:39:03;99361.97;;;9.46;79.73
77149;BME280;66122;47.130;16.844;2023-03-23T21:49:09;99326.38;;;9.04;81.31
77149;BME280;66122;47.130;16.844;2023-03-23T21:59:15;99363.31;;;9.06;80.81
77149;BME280;66122;47.130;16.844;2023-03-23T22:09:18;99366.88;;;8.72;82.92
77149;BME280;66122;47.130;16.844;2023-03-23T22:19:20;99356.41;;;8.70;82.70
77149;BME280;66122;47.130;16.844;2023-03-23T22:29:23;99349.19;;;8.22;86.23
77149;BME280;66122;47.130;16.844;2023-03-23T22:39:25;99341.69;;;8.49;82.43
77149;BME280;66122;47.130;16.844;2023-03-23T22:49:28;99348.25;;;8.75;82.14
77149;BME280;66122;47.130;16.844;2023-03-23T22:59:31;99336.63;;;8.61;80.51
77149;BME280;66122;47.130;16.844;2023-03-23T23:09:33;99300.31;;;8.49;81.55
77149;BME280;66122;47.130;16.844;2023-03-23T23:19:36;99343.28;;;8.69;80.54
77149;BME280;66122;47.130;16.844;2023-03-23T23:29:38;99301.31;;;7.95;84.28
77149;BME280;66122;47.130;16.844;2023-03-23T23:39:41;99335.47;;;7.98;85.39
77149;BME280;66122;47.130;16.844;2023-03-23T23:49:44;99318.81;;;8.32;83.75
77149;BME280;66122;47.130;16.844;2023-03-23T23:59:47;99336.03;;;8.39;85.66
